sensor_id;sensor_type;location;lat;lon;timestamp;P1;durP1;ratioP1;P2;durP2;ratioP2
45408;SDS011;31162;51.076;3.784;2023-07-31T00:00:34;17.40;;;6.68;;
45408;SDS011;31162;51.076;3.784;2023-07-31T00:03:00;15.70;;;6.57;;
45408;SDS011;31162;51.076;3.784;2023-07-31T00:05:25;14.25;;;6.60;;
45408;SDS011;31162;51.076;3.784;2023-07-31T00:07:53;17.90;;;7.00;;
45408;SDS011;31162;51.076;3.784;2023-07-31T00:10:19;14.05;;;6.82;;
45408;SDS011;31162;51.076;3.784;2023-07-31T00:12:45;16.83;;;6.60;;
45408;SDS011;31162;51.076;3.784;2023-07-31T00:15:12;13.48;;;6.53;;
45408;SDS011;31162;51.076;3.784;2023-07-31T00:17:39;13.25;;;6.20;;
45408;SDS011;31162;51.076;3.784;2023-07-31T00:20:05;14.98;;;6.60;;
45408;SDS011;31162;51.076;3.784;2023-07-31T00:22:31;14.98;;;6.65;;
45408;SDS011;31162;51.076;3.784;2023-07-31T00:24:56;15.43;;;6.97;;
45408;SDS011;31162;51.076;3.784;2023-07-31T00:27:22;15.50;;;6.45;;
45408;SDS011;31162;51.076;3.784;2023-07-31T00:29:48;14.27;;;6.88;;
45408;SDS011;31162;51.076;3.784;2023-07-31T00:32:14;18.40;;;6.90;;
45408;SDS011;31162;51.076;3.784;2023-07-31T00:34:39;18.52;;;7.13;;
45408;SDS011;31162;51.076;3.784;2023-07-31T00:37:05;13.02;;;6.63;;
45408;SDS011;31162;51.076;3.784;2023-07-31T00:39:31;14.52;;;6.40;;
45408;SDS011;31162;51.076;3.784;2023-07-31T00:41:56;15.82;;;7.00;;
45408;SDS011;31162;51.076;3.784;2023-07-31T00:44:22;16.95;;;6.00;;
45408;SDS011;31162;51.076;3.784;2023-07-31T00:46:48;17.35;;;6.47;;
45408;SDS011;31162;51.076;3.784;2023-07-31T00:49:14;15.57;;;6.65;;
45408;SDS011;31162;51.076;3.784;2023-07-31T00:51:43;15.48;;;6.53;;
45408;SDS011;31162;51.076;3.784;2023-07-31T00:54:08;17.48;;;6.25;;
45408;SDS011;31162;51.076;3.784;2023-07-31T00:56:35;15.88;;;7.10;;
45408;SDS011;31162;51.076;3.784;2023-07-31T00:59:02;13.18;;;5.63;;
45408;SDS011;31162;51.076;3.784;2023-07-31T01:01:27;17.33;;;6.05;;
45408;SDS011;31162;51.076;3.784;2023-07-31T01:03:53;14.82;;;6.47;;
45408;SDS011;31162;51.076;3.784;2023-07-31T01:12:11;11.52;;;5.68;;
45408;SDS011;31162;51.076;3.784;2023-07-31T01:14:39;15.95;;;6.07;;
45408;SDS011;31162;51.076;3.784;2023-07-31T01:17:05;15.88;;;6.28;;
45408;SDS011;31162;51.076;3.784;2023-07-31T01:19:31;14.18;;;6.47;;
45408;SDS011;31162;51.076;3.784;2023-07-31T01:21:59;15.13;;;6.22;;
45408;SDS011;31162;51.076;3.784;2023-07-31T01:27:30;17.75;;;6.20;;
45408;SDS011;31162;51.076;3.784;2023-07-31T01:30:21;15.77;;;6.07;;
45408;SDS011;31162;51.076;3.784;2023-07-31T01:32:48;15.70;;;6.07;;
45408;SDS011;31162;51.076;3.784;2023-07-31T01:35:16;12.82;;;5.57;;
45408;SDS011;31162;51.076;3.784;2023-07-31T01:37:42;15.43;;;5.80;;
45408;SDS011;31162;51.076;3.784;2023-07-31T01:40:08;13.50;;;5.82;;
45408;SDS011;31162;51.076;3.784;2023-07-31T01:42:34;14.30;;;6.30;;
45408;SDS011;31162;51.076;3.784;2023-07-31T01:45:00;17.17;;;5.95;;
45408;SDS011;31162;51.076;3.784;2023-07-31T01:47:25;12.25;;;5.85;;
45408;SDS011;31162;51.076;3.784;2023-07-31T01:49:51;15.02;;;6.25;;
45408;SDS011;31162;51.076;3.784;2023-07-31T01:52:17;14.48;;;6.13;;
45408;SDS011;31162;51.076;3.784;2023-07-31T01:54:42;13.52;;;5.72;;
45408;SDS011;31162;51.076;3.784;2023-07-31T01:57:08;17.25;;;6.47;;
45408;SDS011;31162;51.076;3.784;2023-07-31T01:59:33;17.92;;;5.88;;
45408;SDS011;31162;51.076;3.784;2023-07-31T02:01:59;12.70;;;5.40;;
45408;SDS011;31162;51.076;3.784;2023-07-31T02:04:25;13.25;;;5.35;;
45408;SDS011;31162;51.076;3.784;2023-07-31T02:06:52;12.55;;;5.38;;
45408;SDS011;31162;51.076;3.784;2023-07-31T02:09:18;10.65;;;5.18;;
45408;SDS011;31162;51.076;3.784;2023-07-31T02:11:44;14.80;;;5.10;;
45408;SDS011;31162;51.076;3.784;2023-07-31T02:14:09;13.73;;;5.63;;
45408;SDS011;31162;51.076;3.784;2023-07-31T02:16:35;11.13;;;5.45;;
45408;SDS011;31162;51.076;3.784;2023-07-31T02:19:00;13.13;;;5.30;;
45408;SDS011;31162;51.076;3.784;2023-07-31T02:21:26;12.48;;;5.35;;
45408;SDS011;31162;51.076;3.784;2023-07-31T02:23:54;12.10;;;5.43;;
45408;SDS011;31162;51.076;3.784;2023-07-31T02:26:20;11.68;;;5.60;;
45408;SDS011;31162;51.076;3.784;2023-07-31T02:28:49;14.40;;;5.47;;
45408;SDS011;31162;51.076;3.784;2023-07-31T02:31:14;16.63;;;5.35;;
45408;SDS011;31162;51.076;3.784;2023-07-31T02:33:40;11.57;;;4.93;;
45408;SDS011;31162;51.076;3.784;2023-07-31T02:36:05;13.70;;;4.95;;
45408;SDS011;31162;51.076;3.784;2023-07-31T02:38:31;11.07;;;4.95;;
45408;SDS011;31162;51.076;3.784;2023-07-31T02:40:57;13.65;;;4.97;;
45408;SDS011;31162;51.076;3.784;2023-07-31T02:43:22;10.70;;;4.60;;
45408;SDS011;31162;51.076;3.784;2023-07-31T02:45:52;12.55;;;5.10;;
45408;SDS011;31162;51.076;3.784;2023-07-31T02:48:17;12.05;;;5.03;;
45408;SDS011;31162;51.076;3.784;2023-07-31T02:50:44;11.40;;;4.45;;
45408;SDS011;31162;51.076;3.784;2023-07-31T02:53:10;14.77;;;5.45;;
45408;SDS011;31162;51.076;3.784;2023-07-31T02:55:36;14.35;;;6.05;;
45408;SDS011;31162;51.076;3.784;2023-07-31T02:58:01;11.52;;;4.97;;
45408;SDS011;31162;51.076;3.784;2023-07-31T03:00:30;12.40;;;5.05;;
45408;SDS011;31162;51.076;3.784;2023-07-31T03:02:55;13.50;;;5.40;;
45408;SDS011;31162;51.076;3.784;2023-07-31T03:05:21;14.10;;;5.22;;
45408;SDS011;31162;51.076;3.784;2023-07-31T03:07:47;14.48;;;5.25;;
45408;SDS011;31162;51.076;3.784;2023-07-31T03:10:12;16.95;;;5.07;;
45408;SDS011;31162;51.076;3.784;2023-07-31T03:12:38;14.85;;;5.45;;
45408;SDS011;31162;51.076;3.784;2023-07-31T03:15:03;8.27;;;5.25;;
45408;SDS011;31162;51.076;3.784;2023-07-31T03:17:31;13.93;;;5.78;;
45408;SDS011;31162;51.076;3.784;2023-07-31T03:19:57;13.45;;;6.28;;
45408;SDS011;31162;51.076;3.784;2023-07-31T03:22:23;11.10;;;5.05;;
45408;SDS011;31162;51.076;3.784;2023-07-31T03:24:48;12.05;;;5.53;;
45408;SDS011;31162;51.076;3.784;2023-07-31T03:27:14;14.00;;;5.82;;
45408;SDS011;31162;51.076;3.784;2023-07-31T03:29:40;12.40;;;6.10;;
45408;SDS011;31162;51.076;3.784;2023-07-31T03:32:05;17.35;;;6.43;;
45408;SDS011;31162;51.076;3.784;2023-07-31T03:34:31;12.57;;;6.65;;
45408;SDS011;31162;51.076;3.784;2023-07-31T03:36:57;11.52;;;6.63;;
45408;SDS011;31162;51.076;3.784;2023-07-31T03:39:23;13.30;;;6.63;;
45408;SDS011;31162;51.076;3.784;2023-07-31T03:41:49;15.25;;;7.15;;
45408;SDS011;31162;51.076;3.784;2023-07-31T03:44:17;17.00;;;6.97;;
45408;SDS011;31162;51.076;3.784;2023-07-31T03:46:43;15.57;;;7.55;;
45408;SDS011;31162;51.076;3.784;2023-07-31T03:49:09;16.95;;;7.10;;
45408;SDS011;31162;51.076;3.784;2023-07-31T03:51:35;15.30;;;7.50;;
45408;SDS011;31162;51.076;3.784;2023-07-31T03:54:01;15.30;;;7.45;;
45408;SDS011;31162;51.076;3.784;2023-07-31T03:56:26;18.70;;;8.10;;
45408;SDS011;31162;51.076;3.784;2023-07-31T03:58:52;17.77;;;7.88;;
45408;SDS011;31162;51.076;3.784;2023-07-31T04:01:19;13.45;;;7.50;;
45408;SDS011;31162;51.076;3.784;2023-07-31T04:03:45;18.92;;;8.10;;
45408;SDS011;31162;51.076;3.784;2023-07-31T04:06:10;15.65;;;7.82;;
45408;SDS011;31162;51.076;3.784;2023-07-31T04:08:36;21.05;;;8.60;;
45408;SDS011;31162;51.076;3.784;2023-07-31T04:11:01;16.92;;;8.48;;
45408;SDS011;31162;51.076;3.784;2023-07-31T04:13:29;14.68;;;8.57;;
45408;SDS011;31162;51.076;3.784;2023-07-31T04:15:55;18.23;;;8.18;;
45408;SDS011;31162;51.076;3.784;2023-07-31T04:18:20;21.00;;;8.70;;
45408;SDS011;31162;51.076;3.784;2023-07-31T04:20:46;17.40;;;8.68;;
45408;SDS011;31162;51.076;3.784;2023-07-31T04:23:12;15.73;;;8.50;;
45408;SDS011;31162;51.076;3.784;2023-07-31T04:25:38;20.63;;;8.73;;
45408;SDS011;31162;51.076;3.784;2023-07-31T04:28:04;18.13;;;9.38;;
45408;SDS011;31162;51.076;3.784;2023-07-31T04:30:29;17.48;;;7.72;;
45408;SDS011;31162;51.076;3.784;2023-07-31T04:32:55;20.42;;;8.55;;
45408;SDS011;31162;51.076;3.784;2023-07-31T04:35:20;13.18;;;7.72;;
45408;SDS011;31162;51.076;3.784;2023-07-31T04:37:46;15.07;;;7.80;;
45408;SDS011;31162;51.076;3.784;2023-07-31T04:40:14;16.15;;;7.18;;
45408;SDS011;31162;51.076;3.784;2023-07-31T04:42:40;19.80;;;11.65;;
45408;SDS011;31162;51.076;3.784;2023-07-31T04:45:06;23.30;;;18.08;;
45408;SDS011;31162;51.076;3.784;2023-07-31T04:47:32;15.32;;;9.27;;
45408;SDS011;31162;51.076;3.784;2023-07-31T04:49:58;16.65;;;10.43;;
45408;SDS011;31162;51.076;3.784;2023-07-31T04:52:23;12.05;;;6.55;;
45408;SDS011;31162;51.076;3.784;2023-07-31T04:54:49;13.20;;;6.88;;
45408;SDS011;31162;51.076;3.784;2023-07-31T04:57:15;12.95;;;7.03;;
45408;SDS011;31162;51.076;3.784;2023-07-31T04:59:40;14.60;;;6.35;;
45408;SDS011;31162;51.076;3.784;2023-07-31T05:02:07;12.80;;;6.68;;
45408;SDS011;31162;51.076;3.784;2023-07-31T05:04:33;58.45;;;48.35;;
45408;SDS011;31162;51.076;3.784;2023-07-31T05:06:59;14.82;;;7.35;;
45408;SDS011;31162;51.076;3.784;2023-07-31T05:09:25;14.55;;;7.00;;
45408;SDS011;31162;51.076;3.784;2023-07-31T05:11:50;10.27;;;6.40;;
45408;SDS011;31162;51.076;3.784;2023-07-31T05:14:16;11.27;;;6.10;;
45408;SDS011;31162;51.076;3.784;2023-07-31T05:16:41;11.88;;;6.70;;
45408;SDS011;31162;51.076;3.784;2023-07-31T05:19:07;11.88;;;7.03;;
45408;SDS011;31162;51.076;3.784;2023-07-31T05:21:33;12.27;;;7.57;;
45408;SDS011;31162;51.076;3.784;2023-07-31T05:23:58;12.40;;;7.72;;
45408;SDS011;31162;51.076;3.784;2023-07-31T05:26:24;10.18;;;7.97;;
45408;SDS011;31162;51.076;3.784;2023-07-31T05:28:50;10.30;;;7.68;;
45408;SDS011;31162;51.076;3.784;2023-07-31T05:31:15;13.38;;;8.25;;
45408;SDS011;31162;51.076;3.784;2023-07-31T05:33:41;12.02;;;7.95;;
45408;SDS011;31162;51.076;3.784;2023-07-31T05:36:06;15.77;;;11.32;;
45408;SDS011;31162;51.076;3.784;2023-07-31T05:38:32;23.10;;;20.60;;
45408;SDS011;31162;51.076;3.784;2023-07-31T05:40:58;13.75;;;8.02;;
45408;SDS011;31162;51.076;3.784;2023-07-31T05:43:23;10.27;;;7.88;;
45408;SDS011;31162;51.076;3.784;2023-07-31T05:45:49;14.45;;;9.00;;
45408;SDS011;31162;51.076;3.784;2023-07-31T05:48:15;9.50;;;7.97;;
45408;SDS011;31162;51.076;3.784;2023-07-31T05:50:42;17.42;;;13.43;;
45408;SDS011;31162;51.076;3.784;2023-07-31T05:53:08;24.25;;;21.75;;
45408;SDS011;31162;51.076;3.784;2023-07-31T05:55:35;13.35;;;7.97;;
45408;SDS011;31162;51.076;3.784;2023-07-31T05:58:01;13.10;;;7.47;;
45408;SDS011;31162;51.076;3.784;2023-07-31T06:00:26;11.63;;;8.40;;
45408;SDS011;31162;51.076;3.784;2023-07-31T06:02:52;23.85;;;16.77;;
45408;SDS011;31162;51.076;3.784;2023-07-31T06:05:18;12.55;;;8.48;;
45408;SDS011;31162;51.076;3.784;2023-07-31T06:07:44;11.05;;;7.63;;
45408;SDS011;31162;51.076;3.784;2023-07-31T06:10:10;13.98;;;7.88;;
45408;SDS011;31162;51.076;3.784;2023-07-31T06:12:35;10.75;;;7.20;;
45408;SDS011;31162;51.076;3.784;2023-07-31T06:15:02;12.52;;;7.13;;
45408;SDS011;31162;51.076;3.784;2023-07-31T06:17:28;11.13;;;7.38;;
45408;SDS011;31162;51.076;3.784;2023-07-31T06:19:54;13.85;;;7.68;;
45408;SDS011;31162;51.076;3.784;2023-07-31T06:22:23;12.10;;;7.00;;
45408;SDS011;31162;51.076;3.784;2023-07-31T06:24:49;13.13;;;7.10;;
45408;SDS011;31162;51.076;3.784;2023-07-31T06:27:14;12.65;;;7.63;;
45408;SDS011;31162;51.076;3.784;2023-07-31T06:29:40;12.75;;;7.00;;
45408;SDS011;31162;51.076;3.784;2023-07-31T06:32:07;12.13;;;6.70;;
45408;SDS011;31162;51.076;3.784;2023-07-31T06:34:33;13.32;;;6.40;;
45408;SDS011;31162;51.076;3.784;2023-07-31T06:36:58;14.00;;;6.78;;
45408;SDS011;31162;51.076;3.784;2023-07-31T06:39:24;12.68;;;6.85;;
45408;SDS011;31162;51.076;3.784;2023-07-31T06:41:50;11.07;;;6.30;;
45408;SDS011;31162;51.076;3.784;2023-07-31T06:44:15;13.60;;;7.03;;
45408;SDS011;31162;51.076;3.784;2023-07-31T06:46:41;12.90;;;6.25;;
45408;SDS011;31162;51.076;3.784;2023-07-31T06:49:07;12.20;;;6.68;;
45408;SDS011;31162;51.076;3.784;2023-07-31T06:51:33;12.05;;;6.47;;
45408;SDS011;31162;51.076;3.784;2023-07-31T06:54:00;14.95;;;6.10;;
45408;SDS011;31162;51.076;3.784;2023-07-31T06:56:28;12.52;;;6.28;;
45408;SDS011;31162;51.076;3.784;2023-07-31T06:58:54;11.35;;;6.03;;
45408;SDS011;31162;51.076;3.784;2023-07-31T07:01:20;12.40;;;5.90;;
45408;SDS011;31162;51.076;3.784;2023-07-31T07:03:46;11.18;;;5.43;;
45408;SDS011;31162;51.076;3.784;2023-07-31T07:06:12;7.03;;;5.53;;
45408;SDS011;31162;51.076;3.784;2023-07-31T07:08:37;8.88;;;5.25;;
45408;SDS011;31162;51.076;3.784;2023-07-31T07:11:03;10.45;;;5.57;;
45408;SDS011;31162;51.076;3.784;2023-07-31T07:13:28;8.48;;;5.63;;
45408;SDS011;31162;51.076;3.784;2023-07-31T07:15:54;8.60;;;6.07;;
45408;SDS011;31162;51.076;3.784;2023-07-31T07:18:20;9.60;;;5.70;;
45408;SDS011;31162;51.076;3.784;2023-07-31T07:20:47;8.52;;;5.47;;
45408;SDS011;31162;51.076;3.784;2023-07-31T07:23:15;6.63;;;4.97;;
45408;SDS011;31162;51.076;3.784;2023-07-31T07:25:41;9.45;;;4.88;;
45408;SDS011;31162;51.076;3.784;2023-07-31T07:28:09;6.22;;;4.97;;
45408;SDS011;31162;51.076;3.784;2023-07-31T07:30:35;7.63;;;5.10;;
45408;SDS011;31162;51.076;3.784;2023-07-31T07:33:01;6.95;;;4.80;;
45408;SDS011;31162;51.076;3.784;2023-07-31T07:35:27;5.82;;;4.38;;
45408;SDS011;31162;51.076;3.784;2023-07-31T07:37:52;6.82;;;4.45;;
45408;SDS011;31162;51.076;3.784;2023-07-31T07:40:18;7.95;;;4.57;;
45408;SDS011;31162;51.076;3.784;2023-07-31T07:42:44;6.13;;;4.47;;
45408;SDS011;31162;51.076;3.784;2023-07-31T07:45:11;7.22;;;4.32;;
45408;SDS011;31162;51.076;3.784;2023-07-31T07:47:38;7.57;;;4.82;;
45408;SDS011;31162;51.076;3.784;2023-07-31T07:50:06;7.50;;;4.63;;
45408;SDS011;31162;51.076;3.784;2023-07-31T07:52:32;7.10;;;4.30;;
45408;SDS011;31162;51.076;3.784;2023-07-31T07:54:57;7.38;;;4.57;;
45408;SDS011;31162;51.076;3.784;2023-07-31T07:57:23;6.00;;;3.97;;
45408;SDS011;31162;51.076;3.784;2023-07-31T07:59:48;8.43;;;4.68;;
45408;SDS011;31162;51.076;3.784;2023-07-31T08:02:14;6.78;;;4.75;;
45408;SDS011;31162;51.076;3.784;2023-07-31T08:04:40;6.63;;;4.50;;
45408;SDS011;31162;51.076;3.784;2023-07-31T08:07:05;8.52;;;3.85;;
45408;SDS011;31162;51.076;3.784;2023-07-31T08:09:31;8.05;;;4.30;;
45408;SDS011;31162;51.076;3.784;2023-07-31T08:11:57;8.07;;;3.92;;
45408;SDS011;31162;51.076;3.784;2023-07-31T08:14:27;6.65;;;3.88;;
45408;SDS011;31162;51.076;3.784;2023-07-31T08:16:53;6.43;;;3.50;;
45408;SDS011;31162;51.076;3.784;2023-07-31T08:19:18;6.40;;;3.70;;
45408;SDS011;31162;51.076;3.784;2023-07-31T08:21:44;5.68;;;2.92;;
45408;SDS011;31162;51.076;3.784;2023-07-31T08:24:09;6.03;;;3.17;;
45408;SDS011;31162;51.076;3.784;2023-07-31T08:26:35;4.85;;;3.00;;
45408;SDS011;31162;51.076;3.784;2023-07-31T08:29:01;5.18;;;3.08;;
45408;SDS011;31162;51.076;3.784;2023-07-31T08:31:26;3.50;;;2.58;;
45408;SDS011;31162;51.076;3.784;2023-07-31T08:33:54;4.53;;;2.65;;
45408;SDS011;31162;51.076;3.784;2023-07-31T08:36:19;4.63;;;2.95;;
45408;SDS011;31162;51.076;3.784;2023-07-31T08:38:45;4.78;;;2.17;;
45408;SDS011;31162;51.076;3.784;2023-07-31T08:41:11;4.55;;;2.50;;
45408;SDS011;31162;51.076;3.784;2023-07-31T08:43:38;3.35;;;2.28;;
45408;SDS011;31162;51.076;3.784;2023-07-31T08:46:05;3.25;;;2.17;;
45408;SDS011;31162;51.076;3.784;2023-07-31T08:48:31;3.80;;;2.40;;
45408;SDS011;31162;51.076;3.784;2023-07-31T08:50:58;2.85;;;2.50;;
45408;SDS011;31162;51.076;3.784;2023-07-31T08:53:24;3.85;;;2.17;;
45408;SDS011;31162;51.076;3.784;2023-07-31T08:55:50;3.97;;;2.50;;
45408;SDS011;31162;51.076;3.784;2023-07-31T08:58:19;3.05;;;2.17;;
45408;SDS011;31162;51.076;3.784;2023-07-31T09:00:45;4.18;;;2.15;;
45408;SDS011;31162;51.076;3.784;2023-07-31T09:03:16;4.18;;;2.25;;
45408;SDS011;31162;51.076;3.784;2023-07-31T09:05:43;3.00;;;2.22;;
45408;SDS011;31162;51.076;3.784;2023-07-31T09:08:15;3.45;;;2.33;;
45408;SDS011;31162;51.076;3.784;2023-07-31T09:10:44;4.07;;;2.53;;
45408;SDS011;31162;51.076;3.784;2023-07-31T09:13:14;3.58;;;2.42;;
45408;SDS011;31162;51.076;3.784;2023-07-31T09:15:42;4.95;;;2.72;;
45408;SDS011;31162;51.076;3.784;2023-07-31T09:18:10;3.63;;;2.58;;
45408;SDS011;31162;51.076;3.784;2023-07-31T09:20:38;4.88;;;2.63;;
45408;SDS011;31162;51.076;3.784;2023-07-31T09:23:10;3.35;;;2.58;;
45408;SDS011;31162;51.076;3.784;2023-07-31T09:25:37;5.15;;;3.05;;
45408;SDS011;31162;51.076;3.784;2023-07-31T09:28:07;3.78;;;2.70;;
45408;SDS011;31162;51.076;3.784;2023-07-31T09:30:47;5.35;;;3.00;;
45408;SDS011;31162;51.076;3.784;2023-07-31T09:33:14;5.03;;;2.87;;
45408;SDS011;31162;51.076;3.784;2023-07-31T09:35:40;5.13;;;2.83;;
45408;SDS011;31162;51.076;3.784;2023-07-31T09:38:10;4.28;;;3.10;;
45408;SDS011;31162;51.076;3.784;2023-07-31T09:40:41;4.32;;;3.08;;
45408;SDS011;31162;51.076;3.784;2023-07-31T09:43:09;5.20;;;3.83;;
45408;SDS011;31162;51.076;3.784;2023-07-31T09:45:40;5.30;;;3.00;;
45408;SDS011;31162;51.076;3.784;2023-07-31T09:48:07;4.47;;;3.13;;
45408;SDS011;31162;51.076;3.784;2023-07-31T09:50:43;3.85;;;2.97;;
45408;SDS011;31162;51.076;3.784;2023-07-31T09:53:13;3.87;;;3.10;;
45408;SDS011;31162;51.076;3.784;2023-07-31T09:55:39;4.13;;;2.70;;
45408;SDS011;31162;51.076;3.784;2023-07-31T09:58:07;5.97;;;3.33;;
45408;SDS011;31162;51.076;3.784;2023-07-31T10:00:34;4.80;;;3.17;;
45408;SDS011;31162;51.076;3.784;2023-07-31T10:03:01;7.57;;;3.95;;
45408;SDS011;31162;51.076;3.784;2023-07-31T10:05:36;6.32;;;3.65;;
45408;SDS011;31162;51.076;3.784;2023-07-31T10:08:04;4.90;;;3.72;;
45408;SDS011;31162;51.076;3.784;2023-07-31T10:10:32;4.80;;;3.38;;
45408;SDS011;31162;51.076;3.784;2023-07-31T10:12:59;5.60;;;3.58;;
45408;SDS011;31162;51.076;3.784;2023-07-31T10:15:26;5.30;;;3.67;;
45408;SDS011;31162;51.076;3.784;2023-07-31T10:17:53;5.95;;;4.25;;
45408;SDS011;31162;51.076;3.784;2023-07-31T10:20:20;5.38;;;3.33;;
45408;SDS011;31162;51.076;3.784;2023-07-31T10:22:46;7.00;;;4.50;;
45408;SDS011;31162;51.076;3.784;2023-07-31T10:25:14;6.75;;;4.60;;
45408;SDS011;31162;51.076;3.784;2023-07-31T10:27:41;5.90;;;4.60;;
45408;SDS011;31162;51.076;3.784;2023-07-31T10:30:08;6.60;;;4.30;;
45408;SDS011;31162;51.076;3.784;2023-07-31T10:32:36;5.95;;;4.60;;
45408;SDS011;31162;51.076;3.784;2023-07-31T10:35:03;7.18;;;4.75;;
45408;SDS011;31162;51.076;3.784;2023-07-31T10:40:04;7.72;;;4.63;;
45408;SDS011;31162;51.076;3.784;2023-07-31T10:42:34;6.72;;;4.95;;
45408;SDS011;31162;51.076;3.784;2023-07-31T10:45:05;5.63;;;4.70;;
45408;SDS011;31162;51.076;3.784;2023-07-31T10:47:42;7.97;;;4.95;;
45408;SDS011;31162;51.076;3.784;2023-07-31T10:50:17;5.25;;;4.32;;
45408;SDS011;31162;51.076;3.784;2023-07-31T10:52:44;6.30;;;3.92;;
45408;SDS011;31162;51.076;3.784;2023-07-31T10:55:28;4.85;;;3.83;;
45408;SDS011;31162;51.076;3.784;2023-07-31T10:57:54;5.93;;;4.18;;
45408;SDS011;31162;51.076;3.784;2023-07-31T11:00:22;6.05;;;4.43;;
45408;SDS011;31162;51.076;3.784;2023-07-31T11:02:58;4.70;;;3.78;;
45408;SDS011;31162;51.076;3.784;2023-07-31T11:08:15;5.60;;;4.05;;
45408;SDS011;31162;51.076;3.784;2023-07-31T11:10:43;6.53;;;4.10;;
45408;SDS011;31162;51.076;3.784;2023-07-31T11:13:09;5.50;;;3.35;;
45408;SDS011;31162;51.076;3.784;2023-07-31T11:15:35;4.32;;;3.50;;
45408;SDS011;31162;51.076;3.784;2023-07-31T11:18:01;6.00;;;3.45;;
45408;SDS011;31162;51.076;3.784;2023-07-31T11:20:31;4.97;;;3.45;;
45408;SDS011;31162;51.076;3.784;2023-07-31T11:23:04;5.72;;;3.05;;
45408;SDS011;31162;51.076;3.784;2023-07-31T11:25:32;3.95;;;3.35;;
45408;SDS011;31162;51.076;3.784;2023-07-31T11:28:05;5.07;;;3.10;;
45408;SDS011;31162;51.076;3.784;2023-07-31T11:30:34;4.40;;;3.30;;
45408;SDS011;31162;51.076;3.784;2023-07-31T11:33:01;4.70;;;3.03;;
45408;SDS011;31162;51.076;3.784;2023-07-31T11:35:31;4.90;;;3.42;;
45408;SDS011;31162;51.076;3.784;2023-07-31T11:37:57;4.20;;;3.38;;
45408;SDS011;31162;51.076;3.784;2023-07-31T11:40:23;4.10;;;3.20;;
45408;SDS011;31162;51.076;3.784;2023-07-31T11:42:54;8.57;;;3.60;;
45408;SDS011;31162;51.076;3.784;2023-07-31T11:45:26;5.43;;;3.75;;
45408;SDS011;31162;51.076;3.784;2023-07-31T11:47:56;6.55;;;4.00;;
45408;SDS011;31162;51.076;3.784;2023-07-31T11:50:22;5.60;;;4.10;;
45408;SDS011;31162;51.076;3.784;2023-07-31T11:52:52;4.65;;;3.40;;
45408;SDS011;31162;51.076;3.784;2023-07-31T11:55:21;4.45;;;3.53;;
45408;SDS011;31162;51.076;3.784;2023-07-31T11:57:47;7.38;;;4.80;;
45408;SDS011;31162;51.076;3.784;2023-07-31T12:00:14;6.35;;;3.70;;
45408;SDS011;31162;51.076;3.784;2023-07-31T12:02:40;4.72;;;3.63;;
45408;SDS011;31162;51.076;3.784;2023-07-31T12:05:10;5.53;;;3.85;;
45408;SDS011;31162;51.076;3.784;2023-07-31T12:07:46;5.88;;;4.18;;
45408;SDS011;31162;51.076;3.784;2023-07-31T12:10:23;7.18;;;4.30;;
45408;SDS011;31162;51.076;3.784;2023-07-31T12:13:00;6.57;;;4.50;;
45408;SDS011;31162;51.076;3.784;2023-07-31T12:15:43;6.43;;;4.10;;
45408;SDS011;31162;51.076;3.784;2023-07-31T12:18:10;7.07;;;4.53;;
45408;SDS011;31162;51.076;3.784;2023-07-31T12:20:41;5.72;;;4.10;;
45408;SDS011;31162;51.076;3.784;2023-07-31T12:25:54;5.03;;;3.85;;
45408;SDS011;31162;51.076;3.784;2023-07-31T12:28:25;8.05;;;5.38;;
45408;SDS011;31162;51.076;3.784;2023-07-31T12:30:51;7.45;;;5.07;;
45408;SDS011;31162;51.076;3.784;2023-07-31T12:33:21;7.93;;;5.35;;
45408;SDS011;31162;51.076;3.784;2023-07-31T12:35:47;8.30;;;6.07;;
45408;SDS011;31162;51.076;3.784;2023-07-31T12:38:13;6.45;;;5.85;;
45408;SDS011;31162;51.076;3.784;2023-07-31T12:40:39;8.32;;;6.32;;
45408;SDS011;31162;51.076;3.784;2023-07-31T12:43:09;8.50;;;6.22;;
45408;SDS011;31162;51.076;3.784;2023-07-31T12:45:35;8.02;;;6.30;;
45408;SDS011;31162;51.076;3.784;2023-07-31T12:48:00;11.38;;;7.32;;
45408;SDS011;31162;51.076;3.784;2023-07-31T12:50:26;8.85;;;7.15;;
45408;SDS011;31162;51.076;3.784;2023-07-31T12:52:53;8.68;;;6.20;;
45408;SDS011;31162;51.076;3.784;2023-07-31T12:55:19;8.45;;;6.18;;
45408;SDS011;31162;51.076;3.784;2023-07-31T12:57:45;8.20;;;6.00;;
45408;SDS011;31162;51.076;3.784;2023-07-31T13:00:11;5.35;;;4.55;;
45408;SDS011;31162;51.076;3.784;2023-07-31T13:02:37;8.40;;;7.60;;
45408;SDS011;31162;51.076;3.784;2023-07-31T13:05:03;4.75;;;4.25;;
45408;SDS011;31162;51.076;3.784;2023-07-31T13:07:32;5.38;;;4.22;;
45408;SDS011;31162;51.076;3.784;2023-07-31T13:09:58;5.57;;;4.80;;
45408;SDS011;31162;51.076;3.784;2023-07-31T13:12:24;6.43;;;5.22;;
45408;SDS011;31162;51.076;3.784;2023-07-31T13:14:50;5.22;;;4.60;;
45408;SDS011;31162;51.076;3.784;2023-07-31T13:17:16;7.07;;;4.15;;
45408;SDS011;31162;51.076;3.784;2023-07-31T13:19:42;4.53;;;3.88;;
45408;SDS011;31162;51.076;3.784;2023-07-31T13:22:08;5.82;;;4.28;;
45408;SDS011;31162;51.076;3.784;2023-07-31T13:24:33;6.40;;;4.22;;
45408;SDS011;31162;51.076;3.784;2023-07-31T13:26:59;7.35;;;3.83;;
45408;SDS011;31162;51.076;3.784;2023-07-31T13:29:25;6.07;;;3.40;;
45408;SDS011;31162;51.076;3.784;2023-07-31T13:31:51;4.25;;;3.20;;
45408;SDS011;31162;51.076;3.784;2023-07-31T13:34:18;3.53;;;2.95;;
45408;SDS011;31162;51.076;3.784;2023-07-31T13:36:43;2.67;;;2.38;;
45408;SDS011;31162;51.076;3.784;2023-07-31T13:39:09;6.30;;;2.95;;
45408;SDS011;31162;51.076;3.784;2023-07-31T13:41:35;4.60;;;2.75;;
45408;SDS011;31162;51.076;3.784;2023-07-31T13:44:00;4.93;;;2.90;;
45408;SDS011;31162;51.076;3.784;2023-07-31T13:46:26;4.85;;;2.88;;
45408;SDS011;31162;51.076;3.784;2023-07-31T13:48:52;6.03;;;2.95;;
45408;SDS011;31162;51.076;3.784;2023-07-31T13:51:21;3.50;;;2.33;;
45408;SDS011;31162;51.076;3.784;2023-07-31T13:53:47;4.13;;;2.97;;
45408;SDS011;31162;51.076;3.784;2023-07-31T13:56:13;4.18;;;3.05;;
45408;SDS011;31162;51.076;3.784;2023-07-31T13:58:39;4.68;;;2.78;;
45408;SDS011;31162;51.076;3.784;2023-07-31T14:01:07;3.80;;;2.67;;
45408;SDS011;31162;51.076;3.784;2023-07-31T14:03:33;5.47;;;3.35;;
45408;SDS011;31162;51.076;3.784;2023-07-31T14:05:59;4.68;;;3.10;;
45408;SDS011;31162;51.076;3.784;2023-07-31T14:08:25;5.30;;;3.80;;
45408;SDS011;31162;51.076;3.784;2023-07-31T14:10:51;5.50;;;3.45;;
45408;SDS011;31162;51.076;3.784;2023-07-31T14:13:16;5.80;;;4.20;;
45408;SDS011;31162;51.076;3.784;2023-07-31T14:15:42;6.53;;;4.10;;
45408;SDS011;31162;51.076;3.784;2023-07-31T14:18:08;7.07;;;4.22;;
45408;SDS011;31162;51.076;3.784;2023-07-31T14:20:34;7.22;;;4.32;;
45408;SDS011;31162;51.076;3.784;2023-07-31T14:23:00;4.90;;;4.10;;
45408;SDS011;31162;51.076;3.784;2023-07-31T14:25:26;8.93;;;4.40;;
45408;SDS011;31162;51.076;3.784;2023-07-31T14:27:52;6.53;;;4.50;;
45408;SDS011;31162;51.076;3.784;2023-07-31T14:30:17;6.35;;;4.25;;
45408;SDS011;31162;51.076;3.784;2023-07-31T14:32:43;6.28;;;3.90;;
45408;SDS011;31162;51.076;3.784;2023-07-31T14:35:09;4.97;;;3.92;;
45408;SDS011;31162;51.076;3.784;2023-07-31T14:37:42;15.02;;;12.27;;
45408;SDS011;31162;51.076;3.784;2023-07-31T14:40:09;6.03;;;5.07;;
45408;SDS011;31162;51.076;3.784;2023-07-31T14:42:36;8.07;;;4.60;;
45408;SDS011;31162;51.076;3.784;2023-07-31T14:45:03;5.90;;;4.15;;
45408;SDS011;31162;51.076;3.784;2023-07-31T14:47:30;6.15;;;3.90;;
45408;SDS011;31162;51.076;3.784;2023-07-31T14:49:58;6.32;;;3.70;;
45408;SDS011;31162;51.076;3.784;2023-07-31T14:52:25;6.38;;;3.85;;
45408;SDS011;31162;51.076;3.784;2023-07-31T14:54:51;5.35;;;3.75;;